createdAt,value
2023-03-03T00:01:38.908Z,95295.63
2023-03-03T00:04:05.506Z,95295.91
2023-03-03T00:06:32.035Z,95297.69
2023-03-03T00:08:58.563Z,95301.88
2023-03-03T00:11:25.220Z,95294.59
2023-03-03T00:13:53.859Z,95295.47
2023-03-03T00:16:39.577Z,95295.38
2023-03-03T00:19:19.010Z,95297.38
2023-03-03T00:21:47.779Z,95289.44
2023-03-03T00:24:14.241Z,95297.03
2023-03-03T00:26:44.090Z,95292.19
2023-03-03T00:29:31.280Z,95291.84
2023-03-03T00:32:22.255Z,95287.16
2023-03-03T00:34:50.105Z,95286.19
2023-03-03T00:37:46.301Z,95283.16
2023-03-03T00:40:16.410Z,95291.19
2023-03-03T00:42:49.072Z,95294.00
2023-03-03T00:45:27.487Z,95288.97
2023-03-03T00:47:54.819Z,95289.66
2023-03-03T00:50:25.619Z,95297.66
2023-03-03T00:53:13.560Z,95299.78
2023-03-03T00:55:40.553Z,95305.25
2023-03-03T00:58:07.459Z,95303.13
2023-03-03T01:00:41.124Z,95306.44
2023-03-03T01:03:14.574Z,95305.50
2023-03-03T01:05:41.754Z,95308.03
2023-03-03T01:08:08.803Z,95302.97
2023-03-03T01:10:40.770Z,95310.03
2023-03-03T01:13:07.708Z,95311.69
2023-03-03T01:15:34.512Z,95309.03
2023-03-03T01:18:01.306Z,95302.88
2023-03-03T01:20:28.159Z,95300.03
2023-03-03T01:22:54.712Z,95301.44
2023-03-03T01:25:21.313Z,95296.50
2023-03-03T01:27:48.061Z,95296.13
2023-03-03T01:30:15.115Z,95288.31
2023-03-03T01:32:41.733Z,95287.88
2023-03-03T01:35:08.721Z,95289.47
2023-03-03T01:37:36.127Z,95291.06
2023-03-03T01:40:05.427Z,95287.16
2023-03-03T01:42:32.634Z,95292.47
2023-03-03T01:45:21.190Z,95288.69
2023-03-03T01:47:58.830Z,95291.19
2023-03-03T01:50:35.866Z,95283.44
2023-03-03T01:53:06.349Z,95283.41
2023-03-03T01:55:39.571Z,95278.94
2023-03-03T01:58:29.321Z,95284.22
2023-03-03T02:01:05.670Z,95277.53
2023-03-03T02:03:33.791Z,95284.91
2023-03-03T02:06:07.969Z,95274.59
2023-03-03T02:08:42.421Z,95265.81
2023-03-03T02:11:11.015Z,95264.31
2023-03-03T02:13:37.691Z,95267.88
2023-03-03T02:16:04.622Z,95275.75
2023-03-03T02:18:31.321Z,95268.88
2023-03-03T02:21:10.622Z,95271.63
2023-03-03T02:24:00.557Z,95274.28
2023-03-03T02:26:29.754Z,95271.47
2023-03-03T02:29:01.362Z,95271.00
2023-03-03T02:31:31.451Z,95267.31
2023-03-03T02:33:58.546Z,95267.94
2023-03-03T02:36:31.598Z,95275.38
2023-03-03T02:39:07.130Z,95274.06
2023-03-03T02:41:41.119Z,95282.47
2023-03-03T02:44:13.933Z,95280.03
2023-03-03T02:46:43.636Z,95279.41
2023-03-03T02:49:12.472Z,95284.25
2023-03-03T02:51:39.823Z,95275.69
2023-03-03T02:54:08.303Z,95275.53
2023-03-03T02:56:35.931Z,95275.19
2023-03-03T02:59:04.963Z,95272.34
2023-03-03T03:01:38.981Z,95271.25
2023-03-03T03:04:16.042Z,95276.66
2023-03-03T03:06:45.688Z,95268.28
2023-03-03T03:09:15.032Z,95274.22
2023-03-03T03:11:42.732Z,95263.34
2023-03-03T03:14:12.727Z,95270.97
2023-03-03T03:16:40.139Z,95269.13
2023-03-03T03:19:07.309Z,95266.22
2023-03-03T03:21:35.351Z,95273.34
2023-03-03T03:24:02.464Z,95259.78
2023-03-03T03:26:29.605Z,95264.34
2023-03-03T03:28:56.542Z,95266.69
2023-03-03T03:31:23.132Z,95270.59
2023-03-03T03:33:49.710Z,95281.06
2023-03-03T03:36:17.285Z,95273.75
2023-03-03T03:38:44.067Z,95274.06
2023-03-03T03:41:12.673Z,95283.97
2023-03-03T03:43:39.586Z,95279.09
2023-03-03T03:46:06.488Z,95280.59
2023-03-03T03:48:34.034Z,95275.75
2023-03-03T03:51:02.596Z,95276.59
2023-03-03T03:53:30.318Z,95275.94
2023-03-03T03:55:56.939Z,95275.31
2023-03-03T03:58:23.751Z,95272.19
2023-03-03T04:00:56.319Z,95266.72
2023-03-03T04:03:23.110Z,95266.38
2023-03-03T04:05:52.879Z,95275.13
2023-03-03T04:08:19.965Z,95273.13
2023-03-03T04:10:46.560Z,95264.66
2023-03-03T04:13:13.126Z,95267.25
2023-03-03T04:15:39.808Z,95266.19
2023-03-03T04:18:06.461Z,95275.50
2023-03-03T04:20:33.052Z,95271.53
2023-03-03T04:22:59.610Z,95273.81
2023-03-03T04:25:26.748Z,95281.28
2023-03-03T04:27:54.370Z,95282.38
2023-03-03T04:30:22.613Z,95282.53
2023-03-03T04:32:53.214Z,95282.22
2023-03-03T04:35:22.314Z,95282.47
2023-03-03T04:37:49.017Z,95286.91
2023-03-03T04:40:18.178Z,95283.63
2023-03-03T04:42:47.110Z,95288.00
2023-03-03T04:45:13.756Z,95289.66
2023-03-03T04:47:40.534Z,95279.53
2023-03-03T04:50:09.400Z,95277.75
2023-03-03T04:52:36.246Z,95273.09
2023-03-03T04:55:04.607Z,95276.56
2023-03-03T04:57:31.968Z,95274.72
2023-03-03T04:59:58.642Z,95276.44
2023-03-03T05:02:25.433Z,95274.22
2023-03-03T05:04:52.359Z,95274.78
2023-03-03T05:07:19.992Z,95277.53
2023-03-03T05:09:46.546Z,95284.13
2023-03-03T05:12:13.108Z,95277.81
2023-03-03T05:14:39.654Z,95281.25
2023-03-03T05:17:06.248Z,95283.84
2023-03-03T05:19:34.815Z,95276.44
2023-03-03T05:22:02.018Z,95278.75
2023-03-03T05:24:28.579Z,95276.56
2023-03-03T05:26:55.268Z,95279.16
2023-03-03T05:29:21.810Z,95275.34
2023-03-03T05:31:48.426Z,95279.47
2023-03-03T05:34:15.096Z,95279.47
2023-03-03T05:36:41.609Z,95283.06
2023-03-03T05:39:08.129Z,95288.53
2023-03-03T05:41:36.796Z,95292.81
2023-03-03T05:44:03.674Z,95296.91
2023-03-03T05:46:30.299Z,95295.53
2023-03-03T05:48:56.986Z,95305.38
2023-03-03T05:51:23.625Z,95292.34
2023-03-03T05:53:50.218Z,95307.16
2023-03-03T05:56:16.805Z,95303.34
2023-03-03T05:58:43.676Z,95308.28
2023-03-03T06:01:10.405Z,95310.47
2023-03-03T06:03:36.951Z,95316.69
2023-03-03T06:06:04.206Z,95314.34
2023-03-03T06:08:32.422Z,95306.78
2023-03-03T06:10:59.026Z,95317.09
2023-03-03T06:13:25.976Z,95317.66
2023-03-03T06:15:52.713Z,95320.38
2023-03-03T06:18:19.252Z,95318.88
2023-03-03T06:20:45.769Z,95322.41
2023-03-03T06:23:12.343Z,95326.84
2023-03-03T06:25:39.520Z,95322.84
2023-03-03T06:28:06.156Z,95334.03
2023-03-03T06:30:32.693Z,95337.75
2023-03-03T06:32:59.296Z,95338.06
2023-03-03T06:35:25.891Z,95348.06
2023-03-03T06:37:52.514Z,95357.66
2023-03-03T06:40:19.378Z,95354.63
2023-03-03T06:42:46.044Z,95345.72
2023-03-03T06:45:12.751Z,95350.16
2023-03-03T06:47:39.316Z,95343.69
2023-03-03T06:50:06.938Z,95353.44
2023-03-03T06:52:33.860Z,95348.78
2023-03-03T06:55:09.692Z,95352.09
2023-03-03T06:57:37.309Z,95346.75
2023-03-03T07:00:12.918Z,95349.06
2023-03-03T07:02:40.128Z,95353.75
2023-03-03T07:05:14.089Z,95358.28
2023-03-03T07:07:40.627Z,95361.09
2023-03-03T07:10:17.911Z,95352.75
2023-03-03T07:12:44.431Z,95358.81
2023-03-03T07:15:20.475Z,95356.50
2023-03-03T07:17:51.196Z,95363.06
2023-03-03T07:20:52.003Z,95363.25
2023-03-03T07:23:25.889Z,95371.28
2023-03-03T07:25:52.804Z,95378.69
2023-03-03T07:28:22.971Z,95376.13
2023-03-03T07:30:49.610Z,95375.34
2023-03-03T07:33:35.009Z,95377.81
2023-03-03T07:36:04.070Z,95384.28
2023-03-03T07:38:53.187Z,95387.84
2023-03-03T07:41:20.829Z,95382.06
2023-03-03T07:43:54.601Z,95387.03
2023-03-03T07:46:42.859Z,95392.13
2023-03-03T07:49:22.219Z,95388.28
2023-03-03T07:51:53.804Z,95400.47
2023-03-03T07:54:29.407Z,95399.66
2023-03-03T07:57:11.335Z,95398.59
2023-03-03T07:59:41.720Z,95400.22
2023-03-03T08:02:29.979Z,95401.47
2023-03-03T08:04:56.605Z,95408.47
2023-03-03T08:07:23.543Z,95410.91
2023-03-03T08:09:56.306Z,95405.44
2023-03-03T08:12:27.689Z,95401.31
2023-03-03T08:14:55.721Z,95409.28
2023-03-03T08:17:26.305Z,95409.97
2023-03-03T08:19:55.304Z,95410.50
2023-03-03T08:22:33.777Z,95401.97
2023-03-03T08:25:00.324Z,95401.97
2023-03-03T08:27:26.852Z,95402.81
2023-03-03T08:29:53.544Z,95397.75
2023-03-03T08:32:20.252Z,95400.59
2023-03-03T08:34:46.803Z,95391.19
2023-03-03T08:37:13.358Z,95390.31
2023-03-03T08:39:40.243Z,95388.22
2023-03-03T08:42:06.779Z,95398.28
2023-03-03T08:44:33.568Z,95401.25
2023-03-03T08:47:00.158Z,95400.53
2023-03-03T08:49:26.733Z,95401.34
2023-03-03T08:52:00.654Z,95402.56
2023-03-03T08:54:27.173Z,95411.47
2023-03-03T08:56:53.771Z,95418.56
2023-03-03T08:59:20.422Z,95416.84
2023-03-03T09:01:46.987Z,95425.03
2023-03-03T09:04:13.642Z,95424.13
2023-03-03T09:06:40.279Z,95425.66
2023-03-03T09:09:06.898Z,95427.56
2023-03-03T09:11:33.725Z,95423.31
2023-03-03T09:14:11.971Z,95426.22
2023-03-03T09:16:48.221Z,95422.91
2023-03-03T09:19:26.747Z,95421.56
2023-03-03T09:21:55.308Z,95418.19
2023-03-03T09:24:30.073Z,95421.59
2023-03-03T09:26:58.913Z,95424.72
2023-03-03T09:29:29.177Z,95418.53
2023-03-03T09:32:02.092Z,95420.47
2023-03-03T09:34:42.440Z,95422.22
2023-03-03T09:37:23.113Z,95423.75
2023-03-03T09:39:58.957Z,95437.94
2023-03-03T09:43:13.405Z,95435.28
2023-03-03T09:46:19.169Z,95436.94
2023-03-03T09:48:57.982Z,95446.78
2023-03-03T09:51:36.784Z,95437.22
2023-03-03T09:54:23.583Z,95440.88
2023-03-03T09:57:12.913Z,95440.50
2023-03-03T09:59:49.768Z,95449.56
2023-03-03T10:02:34.832Z,95457.66
2023-03-03T10:05:26.466Z,95457.38
2023-03-03T10:07:58.855Z,95457.34
2023-03-03T10:10:59.088Z,95457.47
2023-03-03T10:13:50.395Z,95454.75
2023-03-03T10:16:41.870Z,95456.41
2023-03-03T10:19:40.332Z,95457.78
2023-03-03T10:22:16.228Z,95458.41
2023-03-03T10:24:54.961Z,95459.91
2023-03-03T10:27:36.314Z,95460.69
2023-03-03T10:30:39.932Z,95466.78
2023-03-03T10:33:27.574Z,95473.28
2023-03-03T10:36:06.661Z,95468.56
2023-03-03T10:39:01.695Z,95466.72
2023-03-03T10:42:01.912Z,95467.84
2023-03-03T10:44:59.971Z,95471.41
2023-03-03T10:47:58.041Z,95462.84
2023-03-03T10:50:36.432Z,95460.81
2023-03-03T10:53:18.223Z,95455.31
2023-03-03T10:55:54.607Z,95458.16
2023-03-03T10:58:39.511Z,95453.28
2023-03-03T11:01:26.873Z,95451.13
2023-03-03T11:04:11.449Z,95449.00
2023-03-03T11:06:58.723Z,95446.88
2023-03-03T11:09:53.984Z,95450.44
2023-03-03T11:12:53.502Z,95463.13
2023-03-03T11:15:34.379Z,95465.59
2023-03-03T11:18:33.738Z,95467.28
2023-03-03T11:21:37.607Z,95476.91
2023-03-03T11:24:10.061Z,95475.41
2023-03-03T11:26:55.709Z,95479.13
2023-03-03T11:29:25.335Z,95472.72
2023-03-03T11:32:23.064Z,95475.94
2023-03-03T11:35:04.489Z,95465.59
2023-03-03T11:37:45.360Z,95466.53
2023-03-03T11:40:22.236Z,95472.00
2023-03-03T11:42:58.506Z,95462.06
2023-03-03T11:45:37.525Z,95462.44
2023-03-03T11:48:34.409Z,95464.78
2023-03-03T11:51:06.338Z,95453.63
2023-03-03T11:53:58.607Z,95451.00
2023-03-03T11:56:34.112Z,95447.06
2023-03-03T11:59:25.873Z,95440.41
2023-03-03T12:02:17.591Z,95442.63
2023-03-03T12:04:54.027Z,95435.22
2023-03-03T12:07:42.234Z,95430.44
2023-03-03T12:10:11.610Z,95427.09
2023-03-03T12:12:44.374Z,95430.13
2023-03-03T12:16:00.251Z,95438.75
2023-03-03T12:18:39.149Z,95430.59
2023-03-03T12:21:38.595Z,95422.84
2023-03-03T12:24:32.721Z,95414.69
2023-03-03T12:27:19.716Z,95410.84
2023-03-03T12:29:58.778Z,95416.16
2023-03-03T12:32:46.543Z,95415.63
2023-03-03T12:35:26.759Z,95417.38
2023-03-03T12:38:49.178Z,95421.31
2023-03-03T12:41:38.064Z,95412.88
2023-03-03T12:44:18.475Z,95421.72
2023-03-03T12:47:05.334Z,95422.94
2023-03-03T12:50:01.156Z,95417.59
2023-03-03T12:52:46.621Z,95415.13
2023-03-03T12:55:30.867Z,95416.50
2023-03-03T12:58:16.093Z,95413.09
2023-03-03T13:01:20.073Z,95423.63
2023-03-03T13:04:07.815Z,95420.09
2023-03-03T13:06:49.004Z,95418.69
2023-03-03T13:09:24.343Z,95411.94
2023-03-03T13:12:09.737Z,95406.22
2023-03-03T13:14:52.699Z,95415.13
2023-03-03T13:17:25.809Z,95416.00
2023-03-03T13:19:56.417Z,95418.63
2023-03-03T13:22:49.063Z,95416.41
2023-03-03T13:25:26.699Z,95413.44
2023-03-03T13:27:59.679Z,95413.00
2023-03-03T13:30:32.737Z,95411.38
2023-03-03T13:33:10.068Z,95406.63
2023-03-03T13:35:48.394Z,95405.06
2023-03-03T13:38:22.275Z,95398.81
2023-03-03T13:41:09.104Z,95407.69
2023-03-03T13:44:00.669Z,95405.84
2023-03-03T13:46:36.215Z,95407.75
2023-03-03T13:49:47.561Z,95405.53
2023-03-03T13:52:23.478Z,95401.22
2023-03-03T13:54:52.817Z,95389.13
2023-03-03T13:57:58.882Z,95392.81
2023-03-03T14:00:54.209Z,95384.97
2023-03-03T14:03:24.097Z,95375.63
2023-03-03T14:06:21.769Z,95370.16
2023-03-03T14:09:09.646Z,95378.81
2023-03-03T14:11:47.184Z,95373.03
2023-03-03T14:14:23.461Z,95376.19
2023-03-03T14:17:02.939Z,95372.09
2023-03-03T14:19:36.766Z,95365.25
2023-03-03T14:22:31.226Z,95356.56
2023-03-03T14:25:08.469Z,95364.34
2023-03-03T14:28:14.023Z,95361.41
2023-03-03T14:30:44.371Z,95366.91
2023-03-03T14:33:10.897Z,95357.94
2023-03-03T14:35:57.892Z,95355.50
2023-03-03T14:38:37.008Z,95346.50
2023-03-03T14:41:36.090Z,95356.88
2023-03-03T14:44:22.590Z,95361.97
2023-03-03T14:47:10.335Z,95354.41
2023-03-03T14:49:39.399Z,95349.22
2023-03-03T14:52:27.938Z,95354.06
2023-03-03T14:55:05.247Z,95356.53
2023-03-03T14:57:41.540Z,95352.06
2023-03-03T15:00:15.063Z,95349.56
2023-03-03T15:03:17.584Z,95362.31
2023-03-03T15:05:52.574Z,95363.84
2023-03-03T15:08:35.047Z,95358.28
2023-03-03T15:11:16.380Z,95353.94
2023-03-03T15:13:43.114Z,95360.03
2023-03-03T15:16:24.309Z,95358.31
2023-03-03T15:19:00.408Z,95356.94
2023-03-03T15:21:32.172Z,95355.19
2023-03-03T15:24:32.899Z,95362.97
2023-03-03T15:27:09.190Z,95367.31
2023-03-03T15:29:55.406Z,95367.94
2023-03-03T15:33:08.287Z,95372.66
2023-03-03T15:35:40.516Z,95373.19
2023-03-03T15:38:49.194Z,95371.34
2023-03-03T15:41:40.660Z,95368.31
2023-03-03T15:44:30.153Z,95377.00
2023-03-03T15:47:18.529Z,95379.00
2023-03-03T15:50:06.787Z,95381.38
2023-03-03T15:53:05.300Z,95377.63
2023-03-03T15:55:31.799Z,95370.53
2023-03-03T15:58:22.435Z,95374.56
2023-03-03T16:01:10.601Z,95380.31
2023-03-03T16:03:45.615Z,95376.34
2023-03-03T16:06:37.326Z,95384.69
2023-03-03T16:09:31.799Z,95383.75
2023-03-03T16:12:17.229Z,95389.63
2023-03-03T16:15:04.356Z,95393.56
2023-03-03T16:17:52.098Z,95388.81
2023-03-03T16:20:29.533Z,95375.94
2023-03-03T16:23:03.540Z,95384.38
2023-03-03T16:25:59.519Z,95393.94
2023-03-03T16:28:33.157Z,95396.41
2023-03-03T16:31:17.157Z,95398.56
2023-03-03T16:33:55.043Z,95402.84
2023-03-03T16:36:46.844Z,95406.78
2023-03-03T16:39:30.593Z,95416.31
2023-03-03T16:42:16.069Z,95412.22
2023-03-03T16:45:01.976Z,95409.28
2023-03-03T16:47:54.691Z,95412.41
2023-03-03T16:50:45.724Z,95420.91
2023-03-03T16:53:39.853Z,95421.75
2023-03-03T16:56:25.498Z,95426.13
2023-03-03T16:59:29.147Z,95425.13
2023-03-03T17:02:01.575Z,95429.31
2023-03-03T17:04:46.368Z,95429.66
2023-03-03T17:07:33.172Z,95433.38
2023-03-03T17:10:20.698Z,95437.44
2023-03-03T17:12:54.622Z,95436.59
2023-03-03T17:15:21.010Z,95438.09
2023-03-03T17:18:06.827Z,95437.03
2023-03-03T17:20:50.268Z,95444.41
2023-03-03T17:23:35.268Z,95440.22
2023-03-03T17:26:20.673Z,95442.84
2023-03-03T17:29:05.366Z,95439.50
2023-03-03T17:31:55.236Z,95445.06
2023-03-03T17:34:36.897Z,95448.06
2023-03-03T17:37:24.414Z,95456.66
2023-03-03T17:40:05.507Z,95464.44
2023-03-03T17:42:46.437Z,95469.03
2023-03-03T17:45:17.636Z,95468.72
2023-03-03T17:47:53.408Z,95471.00
2023-03-03T17:51:03.568Z,95476.25
2023-03-03T17:53:50.714Z,95479.81
2023-03-03T17:56:22.856Z,95479.56
2023-03-03T17:59:17.523Z,95486.25
2023-03-03T18:02:02.567Z,95487.66
2023-03-03T18:05:26.693Z,95489.66
2023-03-03T18:08:23.128Z,95488.16
2023-03-03T18:11:46.867Z,95491.38
2023-03-03T18:14:28.994Z,95490.03
2023-03-03T18:17:22.496Z,95498.63
2023-03-03T18:19:59.180Z,95495.84
2023-03-03T18:22:33.736Z,95499.81
2023-03-03T18:25:18.028Z,95501.06
2023-03-03T18:27:45.565Z,95500.47
2023-03-03T18:30:20.127Z,95501.75
2023-03-03T18:32:55.591Z,95501.78
2023-03-03T18:35:32.707Z,95504.41
2023-03-03T18:38:17.869Z,95507.72
2023-03-03T18:40:58.226Z,95507.06
2023-03-03T18:43:40.140Z,95511.34
2023-03-03T18:46:25.013Z,95509.44
2023-03-03T18:48:57.010Z,95522.91
2023-03-03T18:51:38.962Z,95507.81
2023-03-03T18:54:18.694Z,95520.34
2023-03-03T18:56:55.896Z,95510.69
2023-03-03T18:59:31.586Z,95513.84
2023-03-03T19:02:24.639Z,95513.56
2023-03-03T19:04:55.973Z,95515.66
2023-03-03T19:07:42.834Z,95519.22
2023-03-03T19:10:21.981Z,95519.66
2023-03-03T19:12:54.616Z,95523.91
2023-03-03T19:15:49.593Z,95528.13
2023-03-03T19:18:49.445Z,95530.34
2023-03-03T19:21:22.643Z,95523.72
2023-03-03T19:23:54.577Z,95529.34
2023-03-03T19:26:30.298Z,95528.66
2023-03-03T19:29:20.045Z,95532.63
2023-03-03T19:31:53.010Z,95531.22
2023-03-03T19:34:25.407Z,95529.28
2023-03-03T19:37:24.304Z,95528.59
2023-03-03T19:39:51.047Z,95526.66
2023-03-03T19:42:47.433Z,95538.13
2023-03-03T19:45:29.250Z,95535.34
2023-03-03T19:48:18.802Z,95539.19
2023-03-03T19:50:58.663Z,95545.44
2023-03-03T19:53:39.052Z,95537.81
2023-03-03T19:56:20.507Z,95538.50
2023-03-03T19:58:49.950Z,95548.09
2023-03-03T20:01:25.580Z,95549.03
2023-03-03T20:04:10.338Z,95547.66
2023-03-03T20:06:42.529Z,95547.91
2023-03-03T20:09:33.399Z,95561.00
2023-03-03T20:12:27.362Z,95548.25
2023-03-03T20:15:18.732Z,95556.13
2023-03-03T20:18:14.070Z,95548.13
2023-03-03T20:20:49.554Z,95560.97
2023-03-03T20:23:42.369Z,95564.91
2023-03-03T20:26:24.785Z,95566.78
2023-03-03T20:29:13.233Z,95561.28
2023-03-03T20:31:50.748Z,95563.84
2023-03-03T20:34:31.578Z,95568.91
2023-03-03T20:37:44.738Z,95565.66
2023-03-03T20:40:20.713Z,95562.06
2023-03-03T20:43:16.707Z,95563.88
2023-03-03T20:46:17.842Z,95557.53
2023-03-03T20:48:44.342Z,95565.84
2023-03-03T20:51:23.522Z,95567.97
2023-03-03T20:53:52.806Z,95570.50
2023-03-03T20:56:24.063Z,95566.44
2023-03-03T20:59:02.619Z,95568.16
2023-03-03T21:01:34.895Z,95572.38
2023-03-03T21:04:38.242Z,95567.56
2023-03-03T21:07:05.761Z,95566.56
2023-03-03T21:09:38.970Z,95573.25
2023-03-03T21:12:31.300Z,95574.53
2023-03-03T21:15:08.143Z,95577.44
2023-03-03T21:17:34.713Z,95576.72
2023-03-03T21:20:29.665Z,95578.38
2023-03-03T21:22:57.697Z,95579.72
2023-03-03T21:25:46.829Z,95576.28
2023-03-03T21:28:29.278Z,95574.63
2023-03-03T21:31:05.361Z,95571.22
2023-03-03T21:33:48.660Z,95569.66
2023-03-03T21:36:16.683Z,95585.84
2023-03-03T21:38:45.258Z,95568.69
2023-03-03T21:41:13.782Z,95578.41
2023-03-03T21:43:49.542Z,95581.63
2023-03-03T21:46:21.373Z,95571.09
2023-03-03T21:48:48.392Z,95579.63
2023-03-03T21:51:15.495Z,95569.44
2023-03-03T21:53:44.002Z,95573.81
2023-03-03T21:56:13.781Z,95574.38
2023-03-03T21:58:41.426Z,95577.94
2023-03-03T22:01:08.372Z,95578.88
2023-03-03T22:03:35.411Z,95576.03
2023-03-03T22:06:02.736Z,95576.16
2023-03-03T22:08:29.333Z,95575.72
2023-03-03T22:10:56.199Z,95565.84
2023-03-03T22:13:24.266Z,95566.94
2023-03-03T22:15:51.756Z,95581.41
2023-03-03T22:18:18.936Z,95574.28
2023-03-03T22:20:47.076Z,95579.38
2023-03-03T22:23:15.560Z,95569.44
2023-03-03T22:25:42.574Z,95576.88
2023-03-03T22:28:09.160Z,95577.72
2023-03-03T22:30:36.776Z,95576.66
2023-03-03T22:33:03.430Z,95578.41
2023-03-03T22:35:30.042Z,95584.84
2023-03-03T22:37:56.595Z,95584.47
2023-03-03T22:40:23.415Z,95585.91
2023-03-03T22:42:50.150Z,95590.50
2023-03-03T22:45:16.773Z,95585.63
2023-03-03T22:47:43.358Z,95584.00
2023-03-03T22:50:10.676Z,95581.63
2023-03-03T22:52:37.331Z,95573.13
2023-03-03T22:55:04.616Z,95581.50
2023-03-03T22:57:31.374Z,95579.06
2023-03-03T22:59:59.836Z,95581.19
2023-03-03T23:02:26.390Z,95576.59
2023-03-03T23:04:58.068Z,95581.66
2023-03-03T23:07:26.310Z,95573.03
2023-03-03T23:09:52.968Z,95576.34
2023-03-03T23:12:19.893Z,95575.06
2023-03-03T23:14:46.476Z,95580.13
2023-03-03T23:17:13.008Z,95576.81
2023-03-03T23:19:39.550Z,95571.66
2023-03-03T23:22:06.132Z,95571.78
2023-03-03T23:24:33.177Z,95565.38
2023-03-03T23:27:00.682Z,95570.34
2023-03-03T23:29:27.243Z,95572.38
2023-03-03T23:31:53.812Z,95574.03
2023-03-03T23:34:20.350Z,95576.06
2023-03-03T23:36:47.157Z,95578.06
2023-03-03T23:39:13.767Z,95575.56
2023-03-03T23:41:40.292Z,95586.53
2023-03-03T23:44:06.840Z,95582.41
2023-03-03T23:46:33.516Z,95583.00
2023-03-03T23:49:01.985Z,95583.22
2023-03-03T23:51:28.625Z,95576.50
2023-03-03T23:53:55.201Z,95585.03
2023-03-03T23:56:21.863Z,95582.28
2023-03-03T23:58:48.439Z,95586.66
